Terminal Aerodrome Forecast
Issued by NWS Brownsville, TX

Home | Current Version | Previous Version | Text Only | Print | Product List | Glossary On
Versions: 1 2 3 4 5 6 7 8 9 10 11 12 13 14 15 16 17 18 19
000
FTUS44 KBRO 192300
TAFHRL
TAF
KHRL 192325Z 2000/2024 11011KT P6SM FEW035 OVC045
     FM200500 13008KT P6SM OVC025
     FM201000 14008KT P6SM OVC015
     FM201600 14015KT P6SM OVC025
     FM201900 15017G24KT P6SM BKN035=

USA.gov is the U.S. government's official web portal to all federal, state and local government web resources and services.